createdAt,value
2019-01-14T00:01:54.026Z,96.70
2019-01-14T00:04:24.520Z,97.00
2019-01-14T00:06:55.136Z,97.20
2019-01-14T00:09:31.130Z,97.50
2019-01-14T00:11:57.986Z,97.40
2019-01-14T00:14:27.771Z,97.60
2019-01-14T00:16:58.391Z,97.40
2019-01-14T00:19:28.340Z,97.30
2019-01-14T00:21:58.970Z,96.80
2019-01-14T00:24:29.532Z,97.10
2019-01-14T00:26:59.737Z,96.60
2019-01-14T00:29:30.028Z,96.20
2019-01-14T00:31:59.934Z,95.90
2019-01-14T00:34:30.762Z,96.10
2019-01-14T00:37:01.251Z,95.70
2019-01-14T00:39:31.684Z,95.30
2019-01-14T00:42:21.332Z,95.30
2019-01-14T00:44:51.562Z,95.50
2019-01-14T00:47:21.040Z,96.00
2019-01-14T00:49:51.564Z,96.20
2019-01-14T00:52:22.236Z,96.10
2019-01-14T00:54:52.862Z,95.80
2019-01-14T00:57:22.680Z,95.60
2019-01-14T00:59:53.259Z,95.30
2019-01-14T01:02:23.129Z,95.20
2019-01-14T01:04:53.021Z,95.00
2019-01-14T01:07:23.650Z,95.20
2019-01-14T01:09:54.229Z,95.00
2019-01-14T01:12:24.512Z,94.90
2019-01-14T01:14:54.870Z,95.00
2019-01-14T01:17:25.479Z,95.10
2019-01-14T01:19:56.134Z,94.70
2019-01-14T01:22:26.362Z,94.80
2019-01-14T01:24:56.961Z,94.80
2019-01-14T01:27:27.482Z,94.50
2019-01-14T01:29:58.064Z,94.90
2019-01-14T01:32:28.389Z,94.40
2019-01-14T01:34:58.630Z,94.60
2019-01-14T01:37:29.184Z,94.50
2019-01-14T01:39:59.838Z,94.40
2019-01-14T01:42:30.104Z,94.30
2019-01-14T01:45:00.668Z,94.50
2019-01-14T01:47:31.258Z,94.20
2019-01-14T01:50:01.768Z,94.20
2019-01-14T01:52:32.281Z,94.40
2019-01-14T01:55:02.444Z,94.40
2019-01-14T01:57:32.670Z,94.50
2019-01-14T02:00:03.281Z,94.50
2019-01-14T02:02:33.627Z,93.90
2019-01-14T02:05:04.252Z,94.00
2019-01-14T02:07:34.918Z,94.20
2019-01-14T02:10:06.138Z,94.60
2019-01-14T02:12:36.486Z,94.50
2019-01-14T02:15:07.482Z,94.70
2019-01-14T02:17:37.994Z,95.00
2019-01-14T02:20:09.166Z,94.80
2019-01-14T02:22:39.815Z,94.80
2019-01-14T02:25:11.562Z,94.80
2019-01-14T02:27:41.758Z,94.90
2019-01-14T02:30:17.850Z,94.90
2019-01-14T02:32:48.359Z,95.00
2019-01-14T02:35:18.811Z,94.80
2019-01-14T02:37:49.173Z,94.90
2019-01-14T02:40:23.021Z,94.60
2019-01-14T02:42:53.641Z,94.80
2019-01-14T02:45:23.608Z,94.50
2019-01-14T02:47:53.558Z,94.30
2019-01-14T02:50:24.018Z,93.90
2019-01-14T02:52:54.310Z,93.90
2019-01-14T02:55:24.529Z,93.90
2019-01-14T02:57:54.998Z,93.90
2019-01-14T03:00:27.742Z,93.50
2019-01-14T03:02:57.873Z,93.90
2019-01-14T03:05:28.328Z,93.70
2019-01-14T03:07:58.630Z,93.70
2019-01-14T03:10:29.016Z,93.50
2019-01-14T03:12:59.276Z,93.80
2019-01-14T03:15:29.987Z,94.10
2019-01-14T03:17:59.428Z,93.60
2019-01-14T03:20:29.760Z,93.50
2019-01-14T03:23:00.237Z,93.60
2019-01-14T03:25:30.616Z,93.60
2019-01-14T03:28:01.238Z,93.50
2019-01-14T03:30:31.817Z,93.30
2019-01-14T03:33:02.037Z,93.40
2019-01-14T03:35:32.224Z,93.20
2019-01-14T03:38:02.853Z,93.30
2019-01-14T03:40:33.098Z,93.40
2019-01-14T03:43:03.572Z,93.60
2019-01-14T03:45:33.842Z,93.50
2019-01-14T03:48:04.065Z,93.90
2019-01-14T03:50:34.710Z,93.90
2019-01-14T03:53:04.694Z,94.20
2019-01-14T03:55:34.942Z,94.30
2019-01-14T03:58:05.521Z,94.20
2019-01-14T04:00:35.463Z,94.00
2019-01-14T04:03:06.058Z,93.70
2019-01-14T04:05:36.750Z,93.90
2019-01-14T04:08:07.092Z,93.70
2019-01-14T04:10:37.581Z,93.90
2019-01-14T04:13:08.250Z,94.30
2019-01-14T04:15:38.796Z,94.30
2019-01-14T04:18:08.962Z,94.40
2019-01-14T04:20:39.543Z,93.80
2019-01-14T04:23:10.106Z,93.90
2019-01-14T04:25:40.459Z,93.90
2019-01-14T04:28:10.672Z,93.90
2019-01-14T04:30:40.137Z,93.90
2019-01-14T04:33:10.092Z,93.90
2019-01-14T04:35:40.018Z,93.90
2019-01-14T04:38:10.158Z,93.90
2019-01-14T04:40:40.022Z,94.00
2019-01-14T04:43:10.326Z,94.30
2019-01-14T04:45:40.841Z,94.20
2019-01-14T04:48:11.375Z,94.10
2019-01-14T04:50:41.928Z,94.30
2019-01-14T04:53:12.515Z,94.40
2019-01-14T04:55:42.459Z,94.40
2019-01-14T04:58:13.042Z,94.80
2019-01-14T05:00:43.248Z,94.80
2019-01-14T05:03:13.067Z,94.70
2019-01-14T05:05:43.686Z,94.90
2019-01-14T05:08:14.258Z,94.70
2019-01-14T05:10:44.200Z,94.80
2019-01-14T05:13:14.582Z,94.60
2019-01-14T05:15:44.498Z,94.60
2019-01-14T05:18:14.660Z,94.50
2019-01-14T05:20:44.944Z,94.30
2019-01-14T05:23:15.168Z,94.30
2019-01-14T05:25:45.746Z,94.10
2019-01-14T05:28:16.346Z,93.90
2019-01-14T05:30:46.958Z,94.40
2019-01-14T05:33:17.155Z,94.10
2019-01-14T05:35:47.423Z,94.30
2019-01-14T05:38:17.926Z,94.50
2019-01-14T05:40:47.772Z,94.40
2019-01-14T05:43:17.994Z,94.80
2019-01-14T05:45:47.816Z,94.90
2019-01-14T05:48:17.631Z,94.90
2019-01-14T05:50:48.174Z,95.30
2019-01-14T05:53:18.626Z,95.20
2019-01-14T05:55:49.219Z,95.30
2019-01-14T05:58:19.704Z,95.40
2019-01-14T06:00:50.598Z,95.60
2019-01-14T06:03:20.814Z,96.00
2019-01-14T06:05:50.989Z,95.20
2019-01-14T06:08:21.110Z,95.10
2019-01-14T06:10:51.494Z,95.20
2019-01-14T06:13:21.737Z,95.20
2019-01-14T06:15:51.950Z,94.90
2019-01-14T06:18:22.582Z,95.00
2019-01-14T06:20:53.086Z,95.10
2019-01-14T06:23:23.590Z,95.20
2019-01-14T06:25:53.862Z,95.40
2019-01-14T06:28:24.042Z,95.80
2019-01-14T06:30:53.587Z,95.70
2019-01-14T06:33:24.243Z,95.70
2019-01-14T06:35:54.883Z,95.70
2019-01-14T06:38:24.941Z,95.70
2019-01-14T06:41:13.940Z,95.50
2019-01-14T06:43:44.518Z,95.50
2019-01-14T06:46:14.742Z,95.60
2019-01-14T06:48:45.232Z,95.30
2019-01-14T06:51:15.450Z,95.20
2019-01-14T06:53:45.996Z,95.30
2019-01-14T06:56:16.522Z,95.30
2019-01-14T06:58:47.102Z,95.30
2019-01-14T07:01:17.540Z,95.40
2019-01-14T07:03:48.122Z,95.70
2019-01-14T07:06:18.590Z,96.00
2019-01-14T07:08:48.712Z,95.60
2019-01-14T07:11:19.812Z,95.60
2019-01-14T07:13:49.981Z,95.70
2019-01-14T07:16:19.972Z,95.70
2019-01-14T07:18:50.490Z,95.70
2019-01-14T07:21:21.042Z,96.00
2019-01-14T07:23:51.482Z,96.10
2019-01-14T07:26:22.184Z,96.00
2019-01-14T07:28:52.714Z,96.20
2019-01-14T07:31:23.348Z,96.50
2019-01-14T07:33:54.069Z,96.80
2019-01-14T07:36:24.571Z,96.90
2019-01-14T07:38:54.948Z,97.00
2019-01-14T07:41:25.114Z,97.10
2019-01-14T07:43:54.970Z,96.90
2019-01-14T07:46:25.306Z,96.90
2019-01-14T07:48:55.496Z,97.40
2019-01-14T07:51:25.704Z,97.60
2019-01-14T07:53:55.304Z,97.40
2019-01-14T07:56:25.530Z,97.40
2019-01-14T07:58:56.256Z,97.40
2019-01-14T08:01:26.598Z,97.50
2019-01-14T08:03:57.153Z,97.50
2019-01-14T08:06:27.154Z,97.40
2019-01-14T08:08:57.304Z,97.40
2019-01-14T08:11:27.966Z,97.50
2019-01-14T08:13:58.480Z,97.50
2019-01-14T08:16:28.690Z,97.50
2019-01-14T08:18:58.974Z,97.60
2019-01-14T08:21:29.525Z,98.00
2019-01-14T08:24:18.858Z,97.90
2019-01-14T08:26:49.185Z,97.80
2019-01-14T08:29:19.757Z,98.10
2019-01-14T08:31:50.100Z,98.30
2019-01-14T08:34:20.434Z,98.10
2019-01-14T08:36:51.110Z,98.30
2019-01-14T08:39:21.676Z,98.60
2019-01-14T08:42:11.396Z,98.40
2019-01-14T08:44:44.127Z,98.40
2019-01-14T08:47:32.726Z,98.30
2019-01-14T08:50:02.540Z,98.10
2019-01-14T08:52:33.024Z,97.90
2019-01-14T08:55:03.501Z,97.60
2019-01-14T08:57:33.400Z,97.70
2019-01-14T09:00:04.386Z,97.50
2019-01-14T09:02:34.688Z,97.40
2019-01-14T09:05:04.790Z,97.40
2019-01-14T09:07:35.021Z,97.90
2019-01-14T09:10:06.467Z,98.10
2019-01-14T09:12:37.030Z,98.40
2019-01-14T09:15:08.972Z,98.90
2019-01-14T09:17:38.801Z,98.80
2019-01-14T09:20:12.141Z,98.10
2019-01-14T09:22:42.626Z,98.40
2019-01-14T09:25:13.166Z,98.20
2019-01-14T09:27:43.506Z,98.00
2019-01-14T09:30:18.596Z,98.30
2019-01-14T09:32:48.858Z,98.30
2019-01-14T09:35:19.424Z,98.60
2019-01-14T09:37:50.042Z,98.70
2019-01-14T09:40:22.184Z,98.80
2019-01-14T09:42:52.458Z,98.90
2019-01-14T09:45:23.085Z,98.60
2019-01-14T09:47:53.085Z,99.20
2019-01-14T09:50:22.876Z,99.10
2019-01-14T09:52:53.332Z,98.90
2019-01-14T09:55:23.228Z,99.10
2019-01-14T09:57:53.558Z,99.30
2019-01-14T10:00:23.192Z,99.30
2019-01-14T10:02:55.594Z,99.50
2019-01-14T10:05:26.208Z,99.30
2019-01-14T10:07:56.490Z,99.30
2019-01-14T10:10:27.092Z,98.70
2019-01-14T10:12:57.312Z,98.30
2019-01-14T10:15:28.060Z,98.40
2019-01-14T10:18:01.601Z,98.30
2019-01-14T10:20:32.222Z,98.00
2019-01-14T10:23:02.926Z,98.40
2019-01-14T10:25:35.764Z,98.60
2019-01-14T10:28:06.002Z,98.30
2019-01-14T10:30:36.238Z,97.90
2019-01-14T10:33:06.522Z,97.50
2019-01-14T10:35:36.996Z,97.90
2019-01-14T10:38:07.578Z,97.80
2019-01-14T10:40:37.164Z,97.90
2019-01-14T10:43:07.788Z,98.10
2019-01-14T10:45:38.107Z,98.00
2019-01-14T10:48:08.360Z,98.10
2019-01-14T10:50:38.202Z,98.30
2019-01-14T10:53:08.777Z,98.10
2019-01-14T10:55:39.362Z,97.70
2019-01-14T10:58:09.950Z,98.30
2019-01-14T11:00:40.528Z,98.20
2019-01-14T11:03:11.076Z,98.50
2019-01-14T11:05:41.287Z,99.00
2019-01-14T11:08:11.622Z,99.50
2019-01-14T11:10:41.868Z,99.70
2019-01-14T11:13:12.118Z,99.50
2019-01-14T11:15:42.797Z,99.90
2019-01-14T11:18:13.436Z,99.90
2019-01-14T11:20:43.664Z,99.60
2019-01-14T11:23:13.860Z,99.90
2019-01-14T11:25:44.216Z,99.50
2019-01-14T11:28:14.887Z,99.10
2019-01-14T11:30:45.172Z,99.30
2019-01-14T11:33:15.380Z,99.30
2019-01-14T11:35:45.994Z,99.30
2019-01-14T11:38:43.994Z,99.90
2019-01-14T11:41:14.675Z,99.90
2019-01-14T11:44:04.007Z,99.80
2019-01-14T11:46:34.571Z,98.00
2019-01-14T11:49:04.695Z,97.00
2019-01-14T11:51:35.268Z,96.80
2019-01-14T11:54:05.434Z,97.50
2019-01-14T11:56:36.463Z,98.30
2019-01-14T11:59:07.080Z,99.10
2019-01-14T12:01:37.244Z,99.30
2019-01-14T12:04:07.522Z,99.90
2019-01-14T12:06:37.763Z,99.90
2019-01-14T12:09:12.325Z,99.90
2019-01-14T12:11:42.252Z,99.90
2019-01-14T12:14:12.187Z,99.90
2019-01-14T12:16:42.762Z,99.90
2019-01-14T12:19:13.383Z,99.90
2019-01-14T12:21:43.981Z,99.90
2019-01-14T12:24:14.547Z,99.90
2019-01-14T12:26:45.108Z,99.90
2019-01-14T12:29:15.557Z,99.70
2019-01-14T12:31:45.981Z,99.70
2019-01-14T12:34:16.538Z,99.60
2019-01-14T12:36:46.801Z,99.90
2019-01-14T12:39:19.609Z,99.90
2019-01-14T12:41:51.220Z,99.90
2019-01-14T12:44:20.995Z,99.90
2019-01-14T12:46:51.691Z,99.90
2019-01-14T12:49:22.276Z,99.90
2019-01-14T12:51:52.494Z,99.90
2019-01-14T12:54:22.673Z,99.90
2019-01-14T12:56:53.163Z,99.90
2019-01-14T12:59:23.813Z,99.90
2019-01-14T13:01:54.131Z,99.90
2019-01-14T13:04:24.356Z,99.90
2019-01-14T13:06:53.937Z,99.90
2019-01-14T13:09:26.839Z,99.90
2019-01-14T13:11:57.213Z,99.90
2019-01-14T13:14:27.683Z,99.90
2019-01-14T13:16:58.073Z,99.90
2019-01-14T13:19:28.373Z,99.90
2019-01-14T13:21:59.053Z,99.90
2019-01-14T13:24:29.215Z,99.90
2019-01-14T13:26:59.601Z,99.90
2019-01-14T13:29:29.815Z,99.90
2019-01-14T13:32:00.274Z,99.90
2019-01-14T13:34:30.427Z,99.90
2019-01-14T13:37:00.724Z,99.90
2019-01-14T13:39:34.190Z,99.90
2019-01-14T13:42:03.796Z,99.90
2019-01-14T13:44:34.270Z,99.90
2019-01-14T13:47:04.413Z,99.90
2019-01-14T13:49:34.975Z,99.90
2019-01-14T13:52:05.553Z,99.90
2019-01-14T13:54:35.537Z,99.90
2019-01-14T13:57:06.133Z,99.90
2019-01-14T13:59:36.354Z,99.90
2019-01-14T14:02:07.249Z,99.90
2019-01-14T14:04:37.464Z,99.90
2019-01-14T14:07:07.699Z,99.90
2019-01-14T14:09:41.323Z,99.90
2019-01-14T14:12:28.903Z,99.90
2019-01-14T14:14:59.103Z,99.90
2019-01-14T14:17:29.596Z,99.90
2019-01-14T14:20:00.091Z,99.90
2019-01-14T14:22:30.938Z,99.90
2019-01-14T14:25:01.255Z,99.90
2019-01-14T14:27:31.486Z,99.90
2019-01-14T14:30:01.400Z,99.90
2019-01-14T14:32:31.887Z,99.90
2019-01-14T14:35:02.467Z,99.90
2019-01-14T14:37:32.939Z,99.90
2019-01-14T14:40:03.075Z,99.90
2019-01-14T14:42:33.083Z,99.90
2019-01-14T14:45:03.603Z,99.90
2019-01-14T14:47:34.132Z,99.70
2019-01-14T14:50:05.090Z,99.90
2019-01-14T14:52:35.371Z,99.90
2019-01-14T14:55:06.186Z,99.90
2019-01-14T14:57:36.755Z,99.80
2019-01-14T15:00:11.772Z,99.50
2019-01-14T15:02:42.208Z,99.40
2019-01-14T15:05:13.029Z,99.60
2019-01-14T15:07:43.590Z,99.50
2019-01-14T15:10:15.831Z,99.30
2019-01-14T15:12:46.131Z,99.10
2019-01-14T15:15:18.047Z,99.30
2019-01-14T15:17:48.522Z,99.10
2019-01-14T15:20:19.866Z,98.40
2019-01-14T15:22:50.438Z,99.00
2019-01-14T15:25:20.372Z,98.50
2019-01-14T15:27:50.926Z,98.40
2019-01-14T15:30:29.103Z,97.60
2019-01-14T15:32:59.600Z,97.80
2019-01-14T15:35:30.257Z,97.20
2019-01-14T15:38:00.509Z,97.30
2019-01-14T15:40:31.086Z,97.70
2019-01-14T15:43:01.681Z,97.90
2019-01-14T15:45:32.220Z,98.00
2019-01-14T15:48:02.696Z,98.30
2019-01-14T15:50:33.283Z,98.40
2019-01-14T15:53:03.442Z,98.40
2019-01-14T15:55:34.124Z,98.30
2019-01-14T15:58:04.305Z,98.40
2019-01-14T16:00:34.613Z,98.80
2019-01-14T16:03:05.280Z,98.70
2019-01-14T16:05:35.534Z,98.30
2019-01-14T16:08:06.259Z,98.40
2019-01-14T16:10:36.191Z,98.30
2019-01-14T16:13:06.219Z,98.30
2019-01-14T16:15:36.021Z,98.10
2019-01-14T16:18:06.731Z,98.30
2019-01-14T16:20:36.608Z,98.40
2019-01-14T16:23:06.739Z,98.20
2019-01-14T16:25:36.725Z,98.10
2019-01-14T16:28:07.154Z,98.20
2019-01-14T16:30:39.003Z,98.40
2019-01-14T16:33:09.173Z,98.20
2019-01-14T16:35:39.345Z,98.10
2019-01-14T16:38:09.693Z,98.10
2019-01-14T16:40:40.267Z,98.00
2019-01-14T16:43:10.495Z,97.80
2019-01-14T16:45:40.751Z,98.40
2019-01-14T16:48:11.395Z,98.40
2019-01-14T16:50:40.914Z,98.40
2019-01-14T16:53:11.107Z,98.40
2019-01-14T16:55:50.207Z,98.50
2019-01-14T16:58:20.740Z,98.80
2019-01-14T17:00:51.277Z,99.10
2019-01-14T17:03:21.958Z,99.10
2019-01-14T17:05:52.537Z,98.90
2019-01-14T17:08:22.714Z,98.90
2019-01-14T17:10:53.255Z,99.20
2019-01-14T17:13:23.583Z,99.30
2019-01-14T17:15:53.501Z,99.40
2019-01-14T17:18:23.789Z,99.60
2019-01-14T17:20:54.086Z,99.40
2019-01-14T17:23:24.421Z,98.10
2019-01-14T17:25:53.875Z,97.70
2019-01-14T17:28:23.807Z,97.20
2019-01-14T17:30:53.994Z,97.70
2019-01-14T17:33:24.565Z,98.00
2019-01-14T17:35:55.036Z,97.80
2019-01-14T17:38:25.352Z,97.70
2019-01-14T17:40:56.051Z,97.10
2019-01-14T17:43:26.218Z,96.90
2019-01-14T17:45:55.767Z,96.60
2019-01-14T17:48:25.803Z,96.80
2019-01-14T17:50:56.388Z,95.60
2019-01-14T17:53:26.571Z,96.00
2019-01-14T17:55:57.184Z,95.20
2019-01-14T17:58:27.837Z,95.50
2019-01-14T18:00:58.501Z,95.30
2019-01-14T18:03:29.098Z,95.70
2019-01-14T18:05:59.511Z,95.20
2019-01-14T18:08:29.814Z,95.40
2019-01-14T18:11:01.781Z,95.30
2019-01-14T18:13:32.836Z,94.50
2019-01-14T18:16:03.219Z,94.60
2019-01-14T18:18:33.905Z,95.20
2019-01-14T18:21:06.658Z,94.90
2019-01-14T18:23:36.933Z,94.80
2019-01-14T18:26:07.527Z,95.20
2019-01-14T18:28:37.766Z,95.50
2019-01-14T18:31:08.076Z,95.80
2019-01-14T18:33:38.399Z,95.60
2019-01-14T18:36:08.697Z,95.30
2019-01-14T18:38:38.990Z,95.30
2019-01-14T18:41:09.569Z,96.00
2019-01-14T18:43:40.007Z,95.70
2019-01-14T18:46:10.230Z,96.00
2019-01-14T18:48:40.683Z,96.00
2019-01-14T18:51:10.939Z,96.10
2019-01-14T18:53:40.867Z,95.70
2019-01-14T18:56:11.334Z,95.90
2019-01-14T18:58:41.263Z,96.10
2019-01-14T19:01:11.847Z,95.60
2019-01-14T19:03:42.493Z,95.60
2019-01-14T19:06:12.694Z,94.80
2019-01-14T19:08:43.412Z,95.10
2019-01-14T19:11:13.396Z,94.70
2019-01-14T19:13:43.573Z,94.50
2019-01-14T19:16:13.818Z,94.40
2019-01-14T19:18:44.448Z,94.70
2019-01-14T19:21:14.928Z,94.70
2019-01-14T19:23:45.483Z,95.10
2019-01-14T19:26:16.899Z,95.70
2019-01-14T19:28:46.454Z,95.40
2019-01-14T19:31:16.979Z,95.20
2019-01-14T19:33:47.527Z,95.10
2019-01-14T19:36:18.007Z,95.20
2019-01-14T19:38:48.288Z,95.20
2019-01-14T19:41:18.781Z,95.70
2019-01-14T19:43:48.729Z,95.90
2019-01-14T19:46:19.211Z,95.90
2019-01-14T19:48:49.905Z,95.90
2019-01-14T19:51:20.102Z,96.30
2019-01-14T19:53:50.595Z,96.20
2019-01-14T19:56:21.175Z,95.80
2019-01-14T19:58:51.585Z,95.60
2019-01-14T20:01:21.797Z,95.30
2019-01-14T20:03:52.419Z,94.90
2019-01-14T20:06:22.988Z,95.60
2019-01-14T20:08:53.187Z,95.20
2019-01-14T20:11:23.371Z,96.00
2019-01-14T20:13:53.891Z,96.20
2019-01-14T20:16:24.505Z,96.00
2019-01-14T20:18:55.047Z,96.00
2019-01-14T20:21:25.589Z,96.00
2019-01-14T20:23:56.075Z,96.00
2019-01-14T20:26:26.353Z,95.90
2019-01-14T20:29:15.307Z,96.20
2019-01-14T20:31:45.619Z,95.60
2019-01-14T20:34:16.115Z,95.80
2019-01-14T20:36:46.731Z,96.00
2019-01-14T20:39:17.259Z,96.30
2019-01-14T20:41:47.439Z,96.40
2019-01-14T20:44:17.976Z,96.70
2019-01-14T20:46:48.170Z,96.60
2019-01-14T20:49:18.787Z,96.40
2019-01-14T20:51:49.477Z,96.40
2019-01-14T20:54:19.934Z,96.50
2019-01-14T20:56:50.542Z,95.70
2019-01-14T20:59:21.103Z,95.50
2019-01-14T21:01:51.713Z,95.30
2019-01-14T21:04:22.213Z,95.20
2019-01-14T21:07:07.778Z,95.20
2019-01-14T21:09:38.981Z,95.30
2019-01-14T21:12:10.069Z,95.10
2019-01-14T21:14:40.457Z,95.60
2019-01-14T21:17:10.651Z,95.30
2019-01-14T21:19:41.002Z,95.20
2019-01-14T21:22:11.103Z,94.70
2019-01-14T21:24:41.151Z,94.50
2019-01-14T21:27:11.289Z,93.70
2019-01-14T21:29:41.675Z,94.20
2019-01-14T21:32:12.013Z,94.10
2019-01-14T21:34:42.459Z,94.40
2019-01-14T21:37:12.268Z,94.10
2019-01-14T21:39:42.725Z,94.20
2019-01-14T21:42:12.899Z,94.20
2019-01-14T21:44:43.288Z,94.30
2019-01-14T21:47:13.944Z,94.30
2019-01-14T21:49:44.487Z,94.10
2019-01-14T21:52:15.235Z,93.50
2019-01-14T21:54:45.457Z,93.40
2019-01-14T21:57:16.929Z,93.50
2019-01-14T21:59:47.340Z,93.30
2019-01-14T22:02:17.516Z,93.10
2019-01-14T22:04:47.930Z,92.80
2019-01-14T22:07:18.393Z,92.70
2019-01-14T22:09:48.543Z,93.10
2019-01-14T22:12:18.759Z,93.00
2019-01-14T22:14:48.843Z,92.60
2019-01-14T22:17:18.892Z,92.90
2019-01-14T22:19:49.131Z,92.90
2019-01-14T22:22:19.184Z,92.70
2019-01-14T22:24:49.786Z,92.50
2019-01-14T22:27:20.143Z,92.50
2019-01-14T22:29:50.273Z,92.00
2019-01-14T22:32:20.670Z,92.30
2019-01-14T22:34:51.145Z,92.40
2019-01-14T22:37:40.354Z,92.60
2019-01-14T22:40:11.569Z,92.60
2019-01-14T22:42:42.247Z,92.60
2019-01-14T22:45:12.825Z,92.80
2019-01-14T22:47:43.168Z,92.90
2019-01-14T22:50:15.375Z,92.60
2019-01-14T22:52:45.955Z,93.00
2019-01-14T22:55:16.394Z,92.90
2019-01-14T22:57:46.656Z,93.00
2019-01-14T23:01:03.965Z,93.20
2019-01-14T23:03:34.234Z,93.10
2019-01-14T23:06:05.532Z,93.90
2019-01-14T23:08:36.160Z,93.70
2019-01-14T23:11:06.891Z,93.90
2019-01-14T23:13:37.378Z,94.10
2019-01-14T23:16:07.989Z,94.20
2019-01-14T23:18:38.176Z,94.40
2019-01-14T23:21:09.763Z,94.40
2019-01-14T23:23:40.017Z,94.40
2019-01-14T23:26:10.191Z,94.40
2019-01-14T23:28:40.783Z,94.40
2019-01-14T23:31:10.751Z,94.40
2019-01-14T23:33:41.338Z,94.40
2019-01-14T23:36:11.605Z,94.30
2019-01-14T23:39:00.463Z,94.10
2019-01-14T23:41:30.691Z,93.80
2019-01-14T23:44:01.139Z,93.80
2019-01-14T23:46:31.336Z,93.60
2019-01-14T23:49:01.855Z,93.50
2019-01-14T23:51:32.343Z,93.50
2019-01-14T23:54:02.933Z,93.40
2019-01-14T23:56:32.850Z,93.30
2019-01-14T23:59:03.147Z,93.50
